Alburtis, Pennsylvania
Current Conditions -  °F | °C
As of 5:15 AM on Friday 24 Oct 2014 (Local Time) from KXLL Reporting Station
Overcast Overcast  
Wind Chill: 54°   Ceiling: 2800
Heat Index: 54°   Visibility: 10mi
Dew Point: 43°   Wind: 10mph
Humidity: 67%   Direction: 310°NW
Pressure: 29.86"   Gusts: 17mph
Location:  40.51°N, 75.6°W
Report Text: KXLL 240915Z AUTO 31009G15KT 10SM OVC028 12/06 A2986 RMK AO2
Loading
Personal Weather Stations






























Interactive Weather Map
Tropical Storm Tracking
New forecast layout! Learn more

10-Day Weather Forecast

Advertisements
Track Severe Weather on mobile